createdAt,value
2023-02-17T00:03:00.653Z,101866.00
2023-02-17T00:06:29.303Z,101870.25
2023-02-17T00:09:57.967Z,101871.98
2023-02-17T00:13:18.060Z,101871.63
2023-02-17T00:16:49.582Z,101865.70
2023-02-17T00:20:18.535Z,101873.88
2023-02-17T00:23:47.625Z,101866.63
2023-02-17T00:27:16.760Z,101863.72
2023-02-17T00:30:45.925Z,101868.20
2023-02-17T00:34:15.319Z,101876.32
2023-02-17T00:37:44.410Z,101881.69
2023-02-17T00:41:13.587Z,101885.81
2023-02-17T00:44:42.963Z,101888.53
2023-02-17T00:48:11.861Z,101892.96
2023-02-17T00:51:40.767Z,101895.28
2023-02-17T00:55:09.550Z,101901.86
2023-02-17T00:58:33.771Z,101897.05
2023-02-17T01:02:02.576Z,101899.70
2023-02-17T01:05:30.565Z,101902.39
2023-02-17T01:08:58.181Z,101904.06
2023-02-17T01:12:10.791Z,101909.41
2023-02-17T01:15:39.527Z,101907.02
2023-02-17T01:19:09.349Z,101912.34
2023-02-17T01:22:36.890Z,101908.58
2023-02-17T01:25:58.226Z,101910.52
2023-02-17T01:29:27.493Z,101903.83
2023-02-17T01:32:56.370Z,101901.59
2023-02-17T01:36:25.032Z,101898.30
2023-02-17T01:39:56.837Z,101905.27
2023-02-17T01:43:16.965Z,101906.46
2023-02-17T01:46:45.750Z,101906.70
2023-02-17T01:50:29.586Z,101907.00
2023-02-17T01:53:58.462Z,101913.94
2023-02-17T01:57:27.648Z,101921.83
2023-02-17T02:00:56.574Z,101928.07
2023-02-17T02:04:25.272Z,101929.65
2023-02-17T02:07:54.249Z,101929.35
2023-02-17T02:11:22.910Z,101928.98
2023-02-17T02:14:51.849Z,101920.66
2023-02-17T02:18:26.664Z,101926.04
2023-02-17T02:21:52.343Z,101923.52
2023-02-17T02:25:48.248Z,101927.55
2023-02-17T02:29:27.397Z,101929.83
2023-02-17T02:33:10.913Z,101934.54
2023-02-17T02:36:45.170Z,101927.27
2023-02-17T02:40:14.258Z,101929.68
2023-02-17T02:43:42.983Z,101929.31
2023-02-17T02:47:12.455Z,101925.48
2023-02-17T02:50:41.181Z,101927.35
2023-02-17T02:54:28.373Z,101936.00
2023-02-17T02:58:03.682Z,101935.10
2023-02-17T03:01:32.586Z,101938.52
2023-02-17T03:05:08.693Z,101935.50
2023-02-17T03:08:37.398Z,101936.79
2023-02-17T03:12:06.135Z,101937.25
2023-02-17T03:15:34.879Z,101941.02
2023-02-17T03:19:03.979Z,101942.20
2023-02-17T03:22:38.532Z,101943.92
2023-02-17T03:26:07.796Z,101941.21
2023-02-17T03:29:36.578Z,101940.11
2023-02-17T03:33:05.442Z,101941.84
2023-02-17T03:36:34.188Z,101946.64
2023-02-17T03:40:03.215Z,101944.02
2023-02-17T03:43:31.842Z,101942.06
2023-02-17T03:47:00.697Z,101937.27
2023-02-17T03:50:29.876Z,101931.30
2023-02-17T03:53:58.730Z,101926.20
2023-02-17T03:57:21.280Z,101923.83
2023-02-17T04:00:50.205Z,101930.64
2023-02-17T04:04:20.558Z,101930.41
2023-02-17T04:07:49.383Z,101931.47
2023-02-17T04:11:18.321Z,101929.90
2023-02-17T04:14:47.724Z,101927.36
2023-02-17T04:18:17.315Z,101914.46
2023-02-17T04:21:46.159Z,101909.83
2023-02-17T04:25:14.904Z,101912.84
2023-02-17T04:28:43.699Z,101912.07
2023-02-17T04:32:12.545Z,101914.59
2023-02-17T04:35:41.307Z,101917.84
2023-02-17T04:39:09.979Z,101919.84
2023-02-17T04:42:39.859Z,101918.61
2023-02-17T04:46:09.755Z,101920.18
2023-02-17T04:49:39.133Z,101918.98
2023-02-17T04:53:08.412Z,101918.76
2023-02-17T04:56:37.290Z,101923.73
2023-02-17T05:00:06.534Z,101933.92
2023-02-17T05:03:35.550Z,101937.57
2023-02-17T05:07:04.421Z,101937.73
2023-02-17T05:10:18.822Z,101937.41
2023-02-17T05:13:46.473Z,101934.09
2023-02-17T05:17:11.151Z,101928.08
2023-02-17T05:20:38.738Z,101932.70
2023-02-17T05:24:07.588Z,101934.40
2023-02-17T05:27:36.918Z,101930.73
2023-02-17T05:31:05.816Z,101924.80
2023-02-17T05:34:37.532Z,101925.69
2023-02-17T05:38:06.308Z,101928.07
2023-02-17T05:41:34.949Z,101927.77
2023-02-17T05:45:03.853Z,101928.83
2023-02-17T05:48:33.384Z,101942.55
2023-02-17T05:52:02.564Z,101948.84
2023-02-17T05:55:31.312Z,101953.41
2023-02-17T05:59:00.749Z,101961.84
2023-02-17T06:02:29.578Z,101968.83
2023-02-17T06:05:58.559Z,101965.82
2023-02-17T06:09:27.652Z,101961.17
2023-02-17T06:12:49.809Z,101941.83
2023-02-17T06:16:18.692Z,101944.98
2023-02-17T06:19:47.392Z,101944.95
2023-02-17T06:23:16.606Z,101950.65
2023-02-17T06:26:45.311Z,101956.84
2023-02-17T06:30:14.230Z,101953.84
2023-02-17T06:33:43.254Z,101955.02
2023-02-17T06:37:12.747Z,101955.50
2023-02-17T06:40:40.624Z,101958.64
2023-02-17T06:44:09.258Z,101959.89
2023-02-17T06:47:38.470Z,101956.60
2023-02-17T06:51:07.544Z,101963.47
2023-02-17T06:54:27.044Z,101970.49
2023-02-17T06:57:56.335Z,101968.68
2023-02-17T07:01:23.577Z,101977.89
2023-02-17T07:04:52.323Z,101976.80
2023-02-17T07:08:21.211Z,101974.64
2023-02-17T07:11:44.068Z,101976.73
2023-02-17T07:15:13.407Z,101978.42
2023-02-17T07:18:42.677Z,101970.45
2023-02-17T07:22:04.940Z,101973.45
2023-02-17T07:25:34.711Z,101983.69
2023-02-17T07:29:04.001Z,101980.62
2023-02-17T07:32:32.898Z,101984.52
2023-02-17T07:36:01.574Z,101984.59
2023-02-17T07:39:30.494Z,101980.85
2023-02-17T07:42:42.713Z,101979.30
2023-02-17T07:46:11.626Z,101975.88
2023-02-17T07:49:40.626Z,101972.96
2023-02-17T07:53:09.308Z,101969.45
2023-02-17T07:56:30.825Z,101971.92
2023-02-17T07:59:59.757Z,101975.61
2023-02-17T08:03:28.642Z,101981.61
2023-02-17T08:06:57.404Z,101993.04
2023-02-17T08:10:24.218Z,101995.22
2023-02-17T08:13:53.489Z,102000.32
2023-02-17T08:17:22.967Z,102005.91
2023-02-17T08:20:52.025Z,102005.13
2023-02-17T08:24:29.604Z,102008.81
2023-02-17T08:27:58.781Z,102010.45
2023-02-17T08:31:28.171Z,102009.70
2023-02-17T08:34:55.801Z,102004.27
2023-02-17T08:38:18.260Z,102010.04
2023-02-17T08:41:56.192Z,102011.98
2023-02-17T08:45:25.130Z,102018.20
2023-02-17T08:48:54.167Z,102030.02
2023-02-17T08:52:22.929Z,102030.44
2023-02-17T08:55:53.465Z,102033.34
2023-02-17T08:59:22.411Z,102034.05
2023-02-17T09:02:51.184Z,102032.70
2023-02-17T09:06:20.016Z,102026.92
2023-02-17T09:09:48.769Z,102024.79
2023-02-17T09:13:17.590Z,102024.72
2023-02-17T09:16:46.567Z,102022.91
2023-02-17T09:20:24.415Z,102029.68
2023-02-17T09:23:53.757Z,102030.89
2023-02-17T09:27:15.228Z,102035.93
2023-02-17T09:30:44.031Z,102039.80
2023-02-17T09:34:13.336Z,102036.55
2023-02-17T09:37:42.099Z,102026.20
2023-02-17T09:41:29.642Z,102027.58
2023-02-17T09:45:01.225Z,102034.19
2023-02-17T09:48:28.141Z,102030.69
2023-02-17T09:51:49.874Z,102042.70
2023-02-17T09:55:19.341Z,102054.22
2023-02-17T09:58:55.931Z,102058.17
2023-02-17T10:02:24.608Z,102061.09
2023-02-17T10:05:51.475Z,102061.46
2023-02-17T10:09:20.338Z,102063.92
2023-02-17T10:13:07.141Z,102063.61
2023-02-17T10:16:39.510Z,102063.06
2023-02-17T10:20:23.460Z,102069.67
2023-02-17T10:24:10.849Z,102076.27
2023-02-17T10:27:51.382Z,102085.53
2023-02-17T10:31:44.478Z,102087.07
2023-02-17T10:35:22.684Z,102084.45
2023-02-17T10:38:57.144Z,102086.42
2023-02-17T10:42:26.072Z,102086.42
2023-02-17T10:45:56.167Z,102089.23
2023-02-17T10:49:31.014Z,102092.39
2023-02-17T10:53:17.923Z,102089.80
2023-02-17T10:56:49.688Z,102093.00
2023-02-17T11:00:27.252Z,102091.16
2023-02-17T11:04:05.156Z,102085.77
2023-02-17T11:07:18.842Z,102083.92
2023-02-17T11:11:08.745Z,102091.55
2023-02-17T11:14:55.528Z,102087.18
2023-02-17T11:18:33.924Z,102093.31
2023-02-17T11:22:06.824Z,102091.10
2023-02-17T11:25:41.833Z,102086.50
2023-02-17T11:29:13.389Z,102084.58
2023-02-17T11:32:42.239Z,102089.33
2023-02-17T11:36:19.627Z,102088.50
2023-02-17T11:40:00.799Z,102088.70
2023-02-17T11:43:29.919Z,102083.89
2023-02-17T11:47:04.748Z,102091.92
2023-02-17T11:50:45.254Z,102091.83
2023-02-17T11:54:26.279Z,102093.96
2023-02-17T11:58:10.642Z,102094.73
2023-02-17T12:01:51.100Z,102097.30
2023-02-17T12:05:32.004Z,102094.81
2023-02-17T12:09:09.999Z,102099.95
2023-02-17T12:12:51.936Z,102093.07
2023-02-17T12:16:25.299Z,102095.78
2023-02-17T12:20:01.507Z,102101.55
2023-02-17T12:23:36.582Z,102108.64
2023-02-17T12:27:06.839Z,102111.05
2023-02-17T12:30:47.372Z,102106.96
2023-02-17T12:34:26.285Z,102108.79
2023-02-17T12:37:48.408Z,102112.73
2023-02-17T12:41:13.910Z,102111.02
2023-02-17T12:44:55.961Z,102104.33
2023-02-17T12:48:33.802Z,102106.80
2023-02-17T12:52:00.798Z,102109.29
2023-02-17T12:55:30.877Z,102108.75
2023-02-17T12:58:59.781Z,102111.59
2023-02-17T13:02:28.672Z,102118.02
2023-02-17T13:06:06.821Z,102117.38
2023-02-17T13:09:38.777Z,102115.22
2023-02-17T13:13:10.234Z,102116.86
2023-02-17T13:16:44.942Z,102120.92
2023-02-17T13:20:13.852Z,102118.77
2023-02-17T13:23:48.374Z,102119.79
2023-02-17T13:27:23.408Z,102117.89
2023-02-17T13:31:04.597Z,102116.23
2023-02-17T13:34:33.357Z,102118.26
2023-02-17T13:38:08.240Z,102121.67
2023-02-17T13:41:39.819Z,102125.66
2023-02-17T13:45:20.782Z,102129.59
2023-02-17T13:48:52.988Z,102135.38
2023-02-17T13:52:27.811Z,102134.01
2023-02-17T13:55:42.837Z,102127.46
2023-02-17T13:59:14.729Z,102132.45
2023-02-17T14:02:43.369Z,102128.19
2023-02-17T14:06:12.408Z,102132.01
2023-02-17T14:09:41.148Z,102134.63
2023-02-17T14:13:09.038Z,102133.14
2023-02-17T14:16:38.073Z,102130.77
2023-02-17T14:20:24.817Z,102128.41
2023-02-17T14:23:53.480Z,102129.61
2023-02-17T14:27:28.311Z,102131.65
2023-02-17T14:30:59.780Z,102136.15
2023-02-17T14:34:35.015Z,102138.71
2023-02-17T14:38:10.012Z,102142.93
2023-02-17T14:41:39.083Z,102141.95
2023-02-17T14:45:08.120Z,102140.59
2023-02-17T14:48:37.586Z,102137.60
2023-02-17T14:52:06.924Z,102142.55
2023-02-17T14:55:36.386Z,102144.52
2023-02-17T14:59:05.874Z,102144.60
2023-02-17T15:02:23.759Z,102144.55
2023-02-17T15:05:52.964Z,102142.36
2023-02-17T15:09:22.097Z,102141.02
2023-02-17T15:12:53.813Z,102142.02
2023-02-17T15:16:22.575Z,102133.70
2023-02-17T15:19:51.304Z,102139.84
2023-02-17T15:23:22.861Z,102142.13
2023-02-17T15:26:54.405Z,102140.23
2023-02-17T15:30:26.286Z,102141.27
2023-02-17T15:33:56.625Z,102141.22
2023-02-17T15:37:25.392Z,102141.02
2023-02-17T15:40:49.070Z,102138.73
2023-02-17T15:44:18.109Z,102137.74
2023-02-17T15:47:39.576Z,102135.45
2023-02-17T15:51:08.745Z,102132.16
2023-02-17T15:54:28.037Z,102141.39
2023-02-17T15:57:57.413Z,102153.43
2023-02-17T16:01:22.848Z,102169.60
2023-02-17T16:04:51.180Z,102184.78
2023-02-17T16:08:20.452Z,102189.48
2023-02-17T16:11:48.112Z,102198.76
2023-02-17T16:15:26.383Z,102204.45
2023-02-17T16:18:57.891Z,102209.77
2023-02-17T16:22:17.007Z,102226.85
2023-02-17T16:25:37.695Z,102233.13
2023-02-17T16:29:07.996Z,102230.73
2023-02-17T16:32:37.150Z,102236.36
2023-02-17T16:36:06.876Z,102241.33
2023-02-17T16:39:36.081Z,102248.89
2023-02-17T16:43:05.439Z,102253.77
2023-02-17T16:46:34.485Z,102255.60
2023-02-17T16:50:03.864Z,102259.79
2023-02-17T16:53:33.274Z,102262.18
2023-02-17T16:57:05.544Z,102266.63
2023-02-17T17:00:34.736Z,102270.22
2023-02-17T17:04:03.932Z,102271.80
2023-02-17T17:07:26.115Z,102280.05
2023-02-17T17:10:55.457Z,102283.69
2023-02-17T17:14:24.536Z,102291.98
2023-02-17T17:17:53.739Z,102294.80
2023-02-17T17:21:21.552Z,102299.19
2023-02-17T17:24:30.594Z,102292.92
2023-02-17T17:27:59.755Z,102287.23
2023-02-17T17:31:12.760Z,102288.64
2023-02-17T17:34:41.926Z,102287.45
2023-02-17T17:38:09.095Z,102290.84
2023-02-17T17:41:38.241Z,102288.86
2023-02-17T17:45:07.382Z,102289.27
2023-02-17T17:48:36.867Z,102288.45
2023-02-17T17:52:06.214Z,102290.33
2023-02-17T17:55:35.742Z,102295.36
2023-02-17T17:59:05.011Z,102288.34
2023-02-17T18:02:33.151Z,102281.13
2023-02-17T18:06:02.433Z,102278.64
2023-02-17T18:09:32.401Z,102274.60
2023-02-17T18:13:02.361Z,102274.45
2023-02-17T18:16:31.836Z,102274.79
2023-02-17T18:20:00.945Z,102269.73
2023-02-17T18:23:30.240Z,102279.59
2023-02-17T18:26:59.244Z,102282.52
2023-02-17T18:30:28.748Z,102276.86
2023-02-17T18:33:57.093Z,102279.03
2023-02-17T18:37:18.856Z,102289.73
2023-02-17T18:40:48.130Z,102277.77
2023-02-17T18:44:17.314Z,102278.55
2023-02-17T18:47:45.972Z,102283.33
2023-02-17T18:51:14.772Z,102282.78
2023-02-17T18:54:33.753Z,102289.81
2023-02-17T18:58:02.437Z,102293.22
2023-02-17T19:01:31.657Z,102295.82
2023-02-17T19:05:00.997Z,102290.20
2023-02-17T19:08:30.040Z,102294.91
2023-02-17T19:11:59.152Z,102295.67
2023-02-17T19:15:28.250Z,102295.70
2023-02-17T19:18:57.798Z,102299.69
2023-02-17T19:22:13.068Z,102299.35
2023-02-17T19:25:42.246Z,102294.84
2023-02-17T19:29:11.362Z,102294.58
2023-02-17T19:32:40.358Z,102286.73
2023-02-17T19:36:09.896Z,102284.27
2023-02-17T19:39:38.702Z,102281.94
2023-02-17T19:42:58.212Z,102266.95
2023-02-17T19:46:30.209Z,102260.47
2023-02-17T19:49:59.618Z,102256.90
2023-02-17T19:53:28.863Z,102247.26
2023-02-17T19:56:37.619Z,102239.71
2023-02-17T19:59:59.436Z,102233.56
2023-02-17T20:03:28.494Z,102244.43
2023-02-17T20:06:57.745Z,102251.81
2023-02-17T20:10:26.951Z,102248.28
2023-02-17T20:13:56.267Z,102245.90
2023-02-17T20:17:25.451Z,102240.28
2023-02-17T20:20:48.268Z,102242.90
2023-02-17T20:24:17.057Z,102247.95
2023-02-17T20:27:46.272Z,102241.67
2023-02-17T20:31:15.709Z,102251.89
2023-02-17T20:34:45.081Z,102261.48
2023-02-17T20:38:14.256Z,102259.90
2023-02-17T20:41:43.557Z,102265.59
2023-02-17T20:44:52.645Z,102253.86
2023-02-17T20:48:21.968Z,102253.41
2023-02-17T20:51:51.217Z,102256.35
2023-02-17T20:55:20.289Z,102256.02
2023-02-17T20:58:49.666Z,102260.79
2023-02-17T21:02:19.378Z,102259.38
2023-02-17T21:05:49.151Z,102268.68
2023-02-17T21:09:11.480Z,102261.42
2023-02-17T21:12:43.455Z,102248.80
2023-02-17T21:16:12.805Z,102237.00
2023-02-17T21:19:42.502Z,102234.84
2023-02-17T21:23:11.710Z,102233.60
2023-02-17T21:26:40.990Z,102237.08
2023-02-17T21:30:10.206Z,102233.69
2023-02-17T21:33:39.486Z,102249.70
2023-02-17T21:37:08.689Z,102261.27
2023-02-17T21:40:37.866Z,102248.39
2023-02-17T21:44:04.956Z,102252.59
2023-02-17T21:47:34.305Z,102262.73
2023-02-17T21:51:03.327Z,102265.09
2023-02-17T21:54:32.819Z,102268.10
2023-02-17T21:58:01.884Z,102264.36
2023-02-17T22:01:31.486Z,102260.77
2023-02-17T22:05:00.474Z,102273.16
2023-02-17T22:08:29.386Z,102274.73
2023-02-17T22:11:50.532Z,102275.16
2023-02-17T22:15:19.248Z,102271.66
2023-02-17T22:18:48.215Z,102269.84
2023-02-17T22:22:17.739Z,102268.70
2023-02-17T22:25:47.098Z,102261.17
2023-02-17T22:29:17.350Z,102257.66
2023-02-17T22:32:28.912Z,102258.60
2023-02-17T22:35:58.544Z,102251.05
2023-02-17T22:39:27.157Z,102248.88
2023-02-17T22:42:49.820Z,102243.59
2023-02-17T22:46:18.731Z,102235.38
2023-02-17T22:49:30.457Z,102230.76
2023-02-17T22:52:49.289Z,102233.55
2023-02-17T22:56:18.047Z,102233.67
2023-02-17T22:59:47.200Z,102232.34
2023-02-17T23:03:16.296Z,102227.73
2023-02-17T23:06:40.566Z,102221.84
2023-02-17T23:10:09.584Z,102218.00
2023-02-17T23:13:38.987Z,102213.23
2023-02-17T23:17:08.065Z,102210.38
2023-02-17T23:20:37.809Z,102205.46
2023-02-17T23:24:07.032Z,102202.23
2023-02-17T23:27:29.022Z,102202.45
2023-02-17T23:30:58.315Z,102201.37
2023-02-17T23:34:27.385Z,102199.95
2023-02-17T23:37:56.090Z,102189.74
2023-02-17T23:41:30.398Z,102189.44
2023-02-17T23:44:58.990Z,102199.48
2023-02-17T23:48:27.829Z,102200.52
2023-02-17T23:51:59.315Z,102201.84
2023-02-17T23:55:28.620Z,102213.77
2023-02-17T23:58:57.800Z,102213.91
